TimeEST,TemperatureF,Dew PointF,Humidity,Sea Level PressureIn,VisibilityMPH,Wind Direction,Wind SpeedMPH,Gust SpeedMPH,PrecipitationIn,Events,Conditions,WindDirDegrees,DateUTC
12:54 AM,19.0,8.1,62,30.45,10.0,West,6.9,-,N/A,,Partly Cloudy,270,2013-01-27 05:54:00
1:54 AM,17.1,9.0,71,30.48,10.0,West,5.8,-,N/A,,Partly Cloudy,260,2013-01-27 06:54:00
2:54 AM,19.9,9.0,62,30.48,10.0,WNW,4.6,-,N/A,,Partly Cloudy,300,2013-01-27 07:54:00
3:54 AM,19.0,9.0,65,30.49,10.0,Calm,Calm,-,N/A,,Partly Cloudy,0,2013-01-27 08:54:00
4:54 AM,19.9,8.1,60,30.50,10.0,WNW,4.6,-,N/A,,Partly Cloudy,290,2013-01-27 09:54:00
5:54 AM,21.0,8.1,57,30.51,10.0,WNW,8.1,-,N/A,,Scattered Clouds,290,2013-01-27 10:54:00
6:54 AM,21.0,8.1,57,30.51,10.0,NW,8.1,-,N/A,,Scattered Clouds,310,2013-01-27 11:54:00
7:54 AM,21.9,10.0,60,30.54,10.0,NW,9.2,-,N/A,,Partly Cloudy,310,2013-01-27 12:54:00
8:54 AM,25.0,12.0,58,30.56,10.0,NNW,9.2,-,N/A,,Partly Cloudy,330,2013-01-27 13:54:00
9:54 AM,28.0,12.9,53,30.58,10.0,NNW,11.5,-,N/A,,Partly Cloudy,340,2013-01-27 14:54:00
10:54 AM,30.0,12.9,49,30.59,10.0,NNW,11.5,-,N/A,,Scattered Clouds,330,2013-01-27 15:54:00
11:54 AM,30.9,12.0,46,30.57,10.0,WNW,8.1,-,N/A,,Scattered Clouds,300,2013-01-27 16:54:00
12:54 PM,33.1,12.9,43,30.53,10.0,NW,8.1,16.1,N/A,,Mostly Cloudy,320,2013-01-27 17:54:00
1:54 PM,34.0,12.0,40,30.51,10.0,West,6.9,-,N/A,,Mostly Cloudy,280,2013-01-27 18:54:00
2:54 PM,36.0,10.9,36,30.51,10.0,Variable,3.5,-,N/A,,Mostly Cloudy,0,2013-01-27 19:54:00
3:54 PM,36.0,10.9,36,30.51,10.0,West,9.2,-,N/A,,Mostly Cloudy,280,2013-01-27 20:54:00
4:54 PM,35.1,10.9,37,30.52,10.0,West,9.2,-,N/A,,Mostly Cloudy,270,2013-01-27 21:54:00
5:54 PM,34.0,10.9,38,30.54,10.0,WNW,5.8,-,N/A,,Mostly Cloudy,300,2013-01-27 22:54:00
6:54 PM,33.1,12.9,43,30.54,10.0,West,6.9,-,N/A,,Partly Cloudy,270,2013-01-27 23:54:00
7:54 PM,32.0,12.9,45,30.53,10.0,WNW,5.8,-,N/A,,Clear,290,2013-01-28 00:54:00
8:54 PM,32.0,12.9,45,30.54,10.0,WNW,6.9,-,N/A,,Clear,300,2013-01-28 01:54:00
9:54 PM,28.0,16.0,61,30.53,10.0,WSW,4.6,-,N/A,,Scattered Clouds,240,2013-01-28 02:54:00
10:54 PM,28.0,16.0,61,30.51,10.0,SW,4.6,-,N/A,,Clear,230,2013-01-28 03:54:00
11:54 PM,27.0,16.0,63,30.53,10.0,WSW,3.5,-,N/A,,Scattered Clouds,250,2013-01-28 04:54:00